Time;durP1;ratioP1;P1;durP2;ratioP2;P2;SDS_P1;SDS_P2;PMS_P1;PMS_P2;Temp;Humidity;BMP_temperature;BMP_pressure;BME280_temperature;BME280_humidity;BME280_pressure;Samples;Min_cycle;Max_cycle;Signal;HPM_P1;HPM_P2
2021/07/15 00:00:10;;;;;;;;;10.50;9.25;;;;;;;;4566578;30;47129;-79
2021/07/15 00:05:42;;;;;;;;;12.00;9.50;;;;;;;;4567741;30;45904;-79
2021/07/15 00:08:08;;;;;;;;;8.50;7.75;;;;;;;;4651279;30;46027;-78
2021/07/15 00:10:54;;;;;;;;;10.00;8.25;;;;;;;;4664301;30;46499;-79
2021/07/15 00:13:19;;;;;;;;;10.75;8.50;;;;;;;;4660622;30;51679;-79
2021/07/15 00:15:47;;;;;;;;;10.25;9.50;;;;;;;;4660409;30;45600;-79
2021/07/15 00:18:21;;;;;;;;;12.00;8.75;;;;;;;;4642995;30;46889;-79
2021/07/15 00:20:47;;;;;;;;;10.00;8.00;;;;;;;;4663509;30;46256;-79
2021/07/15 00:26:22;;;;;;;;;10.00;9.25;;;;;;;;4659117;30;45953;-80
2021/07/15 00:28:48;;;;;;;;;9.75;9.50;;;;;;;;4651306;30;45603;-79
2021/07/15 00:37:55;;;;;;;;;8.50;8.50;;;;;;;;4628432;30;45540;-81
2021/07/15 00:40:29;;;;;;;;;11.25;9.25;;;;;;;;4611788;30;49693;-81
2021/07/15 00:48:51;;;;;;;;;10.75;9.25;;;;;;;;5087061;24;45841;-81
2021/07/15 00:51:31;;;;;;;;;11.25;10.00;;;;;;;;4679428;30;46206;-81
2021/07/15 00:53:57;;;;;;;;;9.50;7.50;;;;;;;;4673546;30;47264;-81
2021/07/15 00:56:24;;;;;;;;;15.00;10.50;;;;;;;;4659208;30;46121;-81
2021/07/15 00:58:50;;;;;;;;;12.25;10.00;;;;;;;;4683348;30;45355;-81
2021/07/15 01:01:18;;;;;;;;;10.00;9.00;;;;;;;;4679095;30;45968;-81
2021/07/15 01:03:44;;;;;;;;;9.75;9.75;;;;;;;;4683030;30;46275;-81
2021/07/15 01:06:09;;;;;;;;;10.50;9.25;;;;;;;;4674845;30;45688;-81
2021/07/15 01:08:34;;;;;;;;;11.50;10.00;;;;;;;;4681488;30;45724;-81
2021/07/15 01:11:17;;;;;;;;;13.00;11.75;;;;;;;;4673836;30;45605;-82
2021/07/15 01:13:50;;;;;;;;;14.25;12.00;;;;;;;;4669901;30;46262;-83
2021/07/15 01:20:08;;;;;;;;;11.25;11.00;;;;;;;;4582742;30;45525;-81
2021/07/15 01:22:38;;;;;;;;;14.75;12.25;;;;;;;;4609766;30;45594;-81
2021/07/15 01:25:22;;;;;;;;;12.00;11.50;;;;;;;;4606650;30;46549;-81
2021/07/15 01:27:52;;;;;;;;;16.75;13.75;;;;;;;;4606332;30;45682;-80
2021/07/15 01:30:22;;;;;;;;;14.50;12.75;;;;;;;;4612379;30;46167;-80
2021/07/15 01:33:15;;;;;;;;;;;;;;;;;;;;;
2021/07/15 01:36:02;;;;;;;;;15.00;11.00;;;;;;;;4606771;30;75579;-82
2021/07/15 01:38:29;;;;;;;;;11.00;11.00;;;;;;;;4610955;30;45513;-81
2021/07/15 01:40:58;;;;;;;;;12.50;11.00;;;;;;;;4605632;30;45677;-82
2021/07/15 01:43:34;;;;;;;;;13.75;11.00;;;;;;;;4601073;30;45882;-81
2021/07/15 01:49:03;;;;;;;;;14.00;12.25;;;;;;;;4615012;30;45773;-81
2021/07/15 01:51:28;;;;;;;;;14.00;11.25;;;;;;;;4607825;30;45578;-80
2021/07/15 01:53:54;;;;;;;;;13.50;12.75;;;;;;;;4595349;30;45519;-81
2021/07/15 01:56:20;;;;;;;;;14.75;12.25;;;;;;;;4634810;30;47141;-82
2021/07/15 01:58:46;;;;;;;;;11.75;11.00;;;;;;;;4662439;30;45648;-80
2021/07/15 02:01:11;;;;;;;;;12.00;11.50;;;;;;;;4685904;30;45479;-81
2021/07/15 02:03:48;;;;;;;;;17.50;11.75;;;;;;;;4682665;30;45458;-81
2021/07/15 02:06:14;;;;;;;;;15.75;12.50;;;;;;;;4652503;30;47440;-81
2021/07/15 02:08:39;;;;;;;;;13.00;12.00;;;;;;;;4663650;30;45661;-81
2021/07/15 02:11:06;;;;;;;;;13.75;11.00;;;;;;;;4677234;30;46911;-82
2021/07/15 02:13:32;;;;;;;;;13.00;12.50;;;;;;;;4670483;30;46867;-82
2021/07/15 02:19:03;;;;;;;;;14.00;12.75;;;;;;;;4661512;30;45680;-81
2021/07/15 02:21:30;;;;;;;;;15.25;11.25;;;;;;;;4674293;30;46115;-81
2021/07/15 02:23:59;;;;;;;;;11.50;11.00;;;;;;;;4661688;30;46396;-81
2021/07/15 02:26:25;;;;;;;;;15.50;12.00;;;;;;;;4675865;30;45725;-81
2021/07/15 02:28:56;;;;;;;;;13.00;12.25;;;;;;;;4675288;30;45626;-80
2021/07/15 02:31:26;;;;;;;;;13.00;11.00;;;;;;;;4682100;30;47286;-82
2021/07/15 02:33:56;;;;;;;;;11.50;11.25;;;;;;;;4666407;30;45384;-81
2021/07/15 02:36:22;;;;;;;;;18.50;15.00;;;;;;;;4673890;30;45764;-81
2021/07/15 02:38:49;;;;;;;;;14.25;13.75;;;;;;;;4678117;30;46633;-79
2021/07/15 02:41:23;;;;;;;;;14.00;13.00;;;;;;;;4661283;30;45934;-79
2021/07/15 02:47:09;;;;;;;;;16.25;12.25;;;;;;;;4702639;30;45540;-81
2021/07/15 02:52:47;;;;;;;;;15.25;13.00;;;;;;;;4587346;30;45867;-79
2021/07/15 02:55:13;;;;;;;;;15.00;13.00;;;;;;;;4584776;30;45631;-80
2021/07/15 02:57:48;;;;;;;;;14.75;13.50;;;;;;;;4586041;30;46775;-79
2021/07/15 03:00:25;;;;;;;;;12.50;11.50;;;;;;;;4594618;30;45488;-77
2021/07/15 03:03:15;;;;;;;;;14.50;13.00;;;;;;;;4580960;30;45819;-80
2021/07/15 03:05:48;;;;;;;;;14.50;12.00;;;;;;;;4591025;30;45676;-79
2021/07/15 03:08:27;;;;;;;;;18.75;14.00;;;;;;;;4571547;30;47320;-79
2021/07/15 03:13:56;;;;;;;;;12.25;12.00;;;;;;;;4604286;30;45501;-78
2021/07/15 03:16:21;;;;;;;;;15.00;13.00;;;;;;;;4586824;30;47885;-79
2021/07/15 03:18:48;;;;;;;;;12.75;10.25;;;;;;;;4573984;30;48419;-79
2021/07/15 03:21:34;;;;;;;;;16.00;12.75;;;;;;;;4576311;30;45826;-81
2021/07/15 03:24:07;;;;;;;;;13.25;11.75;;;;;;;;4589781;30;46467;-78
2021/07/15 03:26:33;;;;;;;;;16.25;13.25;;;;;;;;4578211;30;45549;-79
2021/07/15 03:29:18;;;;;;;;;13.25;11.75;;;;;;;;4611047;30;49517;-79
2021/07/15 03:32:10;;;;;;;;;16.00;13.50;;;;;;;;4670516;30;45713;-78
2021/07/15 03:34:36;;;;;;;;;15.00;12.00;;;;;;;;4658386;30;45536;-79
2021/07/15 03:37:02;;;;;;;;;14.75;14.25;;;;;;;;4681529;30;45506;-79
2021/07/15 03:39:38;;;;;;;;;;;;;;;;;;;;;
2021/07/15 03:42:04;;;;;;;;;13.50;12.50;;;;;;;;4674780;30;72086;-78
2021/07/15 03:44:30;;;;;;;;;16.25;13.75;;;;;;;;4667814;30;46037;-79
2021/07/15 03:47:05;;;;;;;;;17.00;12.50;;;;;;;;4662747;30;45586;-80
2021/07/15 03:49:56;;;;;;;;;16.75;15.25;;;;;;;;4660352;30;46257;-80
2021/07/15 03:55:28;;;;;;;;;20.25;15.50;;;;;;;;4552167;31;45436;-78
2021/07/15 03:58:35;;;;;;;;;16.00;14.25;;;;;;;;4575903;30;45683;-78
2021/07/15 04:01:03;;;;;;;;;15.50;14.50;;;;;;;;4585574;30;45831;-77
2021/07/15 04:03:29;;;;;;;;;19.25;14.25;;;;;;;;4572255;30;45866;-77
2021/07/15 04:05:55;;;;;;;;;14.75;13.00;;;;;;;;4584578;30;45815;-80
2021/07/15 04:33:37;;;;;;;;;13.75;12.50;;;;;;;;4497902;31;45828;-79
2021/07/15 04:41:13;;;;;;;;;14.75;13.25;;;;;;;;4936733;24;46956;-79
2021/07/15 04:44:06;;;;;;;;;16.25;14.25;;;;;;;;4648454;30;45606;-79
2021/07/15 04:46:33;;;;;;;;;14.25;13.00;;;;;;;;4674385;30;47284;-79
2021/07/15 04:50:06;;;;;;;;;16.00;14.00;;;;;;;;4668210;30;45613;-79
2021/07/15 04:55:16;;;;;;;;;14.00;12.50;;;;;;;;4594054;30;45652;-79
2021/07/15 04:57:44;;;;;;;;;16.75;15.25;;;;;;;;4595960;30;48825;-78
2021/07/15 05:03:34;;;;;;;;;13.00;11.00;;;;;;;;4546946;31;45610;-79
2021/07/15 05:06:22;;;;;;;;;15.00;13.00;;;;;;;;4538084;31;45650;-79
2021/07/15 05:08:48;;;;;;;;;12.50;11.25;;;;;;;;4546308;31;47566;-80
2021/07/15 05:11:53;;;;;;;;;13.75;12.50;;;;;;;;4526927;31;45724;-80
2021/07/15 05:14:20;;;;;;;;;17.25;14.50;;;;;;;;4539994;31;45686;-81
2021/07/15 05:17:13;;;;;;;;;15.75;15.75;;;;;;;;4539123;31;45727;-81
2021/07/15 05:19:38;;;;;;;;;18.50;16.25;;;;;;;;4524888;31;46926;-80
2021/07/15 05:25:08;;;;;;;;;18.25;15.75;;;;;;;;4477843;31;45527;-80
2021/07/15 05:30:37;;;;;;;;;19.00;14.25;;;;;;;;4433479;31;46477;-80
2021/07/15 05:33:03;;;;;;;;;17.00;16.00;;;;;;;;4465206;31;46802;-79
2021/07/15 05:35:28;;;;;;;;;25.00;16.75;;;;;;;;4501816;31;45534;-80
2021/07/15 05:37:53;;;;;;;;;16.50;13.75;;;;;;;;4496600;31;45723;-80
2021/07/15 05:40:19;;;;;;;;;20.00;17.75;;;;;;;;4500015;31;46541;-80
2021/07/15 05:42:44;;;;;;;;;10.00;9.50;;;;;;;;4515752;31;46085;-80
2021/07/15 05:45:12;;;;;;;;;16.00;13.00;;;;;;;;4527087;31;45358;-80
2021/07/15 05:47:37;;;;;;;;;14.50;13.75;;;;;;;;4509249;31;46794;-80
2021/07/15 05:50:09;;;;;;;;;15.25;14.00;;;;;;;;4525127;31;46441;-80
2021/07/15 06:02:27;;;;;;;;;;;;;;;;;;;;;
2021/07/15 06:04:53;;;;;;;;;12.75;11.50;;;;;;;;4622930;24;73383;-94
2021/07/15 06:10:38;;;;;;;;;15.00;11.00;;;;;;;;4582149;31;45692;-80
2021/07/15 06:13:05;;;;;;;;;11.00;10.25;;;;;;;;4553800;31;45619;-80
2021/07/15 06:15:41;;;;;;;;;14.00;10.00;;;;;;;;4557765;30;46094;-79
2021/07/15 06:24:14;;;;;;;;;11.00;10.00;;;;;;;;4572439;30;45787;-80
2021/07/15 06:29:50;;;;;;;;;14.25;9.25;;;;;;;;4571482;31;45597;-80
2021/07/15 06:41:29;;;;;;;;;14.25;13.00;;;;;;;;4540469;24;45581;-81
2021/07/15 06:43:54;;;;;;;;;13.50;11.25;;;;;;;;4652489;30;48454;-81
2021/07/15 06:46:22;;;;;;;;;11.75;11.00;;;;;;;;4652813;30;46246;-83
2021/07/15 06:49:04;;;;;;;;;11.75;9.75;;;;;;;;4659652;30;46162;-83
2021/07/15 06:51:52;;;;;;;;;12.25;11.50;;;;;;;;4656366;30;58708;-79
2021/07/15 06:54:37;;;;;;;;;8.75;8.25;;;;;;;;4655571;30;45921;-80
2021/07/15 07:09:48;;;;;;;;;9.50;9.00;;;;;;;;4479811;31;45575;-82
2021/07/15 07:12:13;;;;;;;;;14.00;12.25;;;;;;;;4483563;31;45687;-82
2021/07/15 07:15:01;;;;;;;;;11.50;8.75;;;;;;;;4476665;31;45726;-81
2021/07/15 07:20:22;;;;;;;;;11.25;9.00;;;;;;;;4901678;24;45964;-82
2021/07/15 07:22:49;;;;;;;;;7.50;6.00;;;;;;;;4658852;30;45460;-82
2021/07/15 07:25:26;;;;;;;;;9.75;8.50;;;;;;;;4655155;30;46713;-81
2021/07/15 07:31:09;;;;;;;;;12.00;10.50;;;;;;;;4615820;30;46616;-81
2021/07/15 07:33:35;;;;;;;;;15.25;10.00;;;;;;;;4668516;25;45667;-94
2021/07/15 07:41:38;;;;;;;;;9.75;8.50;;;;;;;;4817703;24;45791;-92
2021/07/15 07:54:03;;;;;;;;;;;;;;;;;;;;;
2021/07/15 08:05:40;;;;;;;;;9.00;8.50;;;;;;;;4763309;24;45800;-82
2021/07/15 08:08:06;;;;;;;;;10.00;9.00;;;;;;;;4654819;30;45799;-80
2021/07/15 08:10:38;;;;;;;;;10.25;9.25;;;;;;;;4664551;30;53949;-81
2021/07/15 08:13:03;;;;;;;;;10.75;9.25;;;;;;;;4649114;30;45616;-81
2021/07/15 08:15:28;;;;;;;;;11.50;11.25;;;;;;;;4652325;30;46175;-83
2021/07/15 08:26:47;;;;;;;;;13.75;10.25;;;;;;;;5121830;24;46241;-84
2021/07/15 08:30:01;;;;;;;;;;;;;;;;;;;;;
2021/07/15 08:45:16;;;;;;;;;9.50;8.00;;;;;;;;4596440;30;45515;-85
2021/07/15 08:47:45;;;;;;;;;12.50;9.75;;;;;;;;4575574;30;46319;-86
2021/07/15 08:50:14;;;;;;;;;8.75;8.75;;;;;;;;4567767;30;47002;-85
2021/07/15 08:52:40;;;;;;;;;10.00;9.50;;;;;;;;4585649;30;45779;-84
2021/07/15 09:01:19;;;;;;;;;9.50;8.75;;;;;;;;4584460;30;45793;-84
2021/07/15 09:03:52;;;;;;;;;8.50;8.50;;;;;;;;4572717;30;45601;-85
2021/07/15 09:06:17;;;;;;;;;8.00;8.00;;;;;;;;4581097;30;53010;-85
2021/07/15 09:08:47;;;;;;;;;8.00;8.00;;;;;;;;4574500;30;45591;-85
2021/07/15 09:11:15;;;;;;;;;8.00;7.50;;;;;;;;4574874;30;47484;-85
2021/07/15 09:19:52;;;;;;;;;8.75;8.25;;;;;;;;4689612;24;50975;-86
2021/07/15 09:28:26;;;;;;;;;9.50;8.25;;;;;;;;4695931;24;45454;-85
2021/07/15 10:04:26;;;;;;;;;11.00;9.00;;;;;;;;4643234;30;47782;-83
2021/07/15 10:06:54;;;;;;;;;11.00;8.75;;;;;;;;4620136;30;45668;-84
2021/07/15 10:09:31;;;;;;;;;10.25;8.75;;;;;;;;4626018;30;45742;-84
2021/07/15 10:18:04;;;;;;;;;11.75;9.00;;;;;;;;4621430;24;46133;-95
2021/07/15 10:20:29;;;;;;;;;9.00;8.50;;;;;;;;4700395;30;46020;-95
2021/07/15 10:35:49;;;;;;;;;8.75;8.75;;;;;;;;4807784;24;46265;-93
2021/07/15 10:38:15;;;;;;;;;9.25;8.00;;;;;;;;4695617;30;47807;-92
2021/07/15 10:40:41;;;;;;;;;9.00;9.00;;;;;;;;4705092;30;45463;-90
2021/07/15 10:43:06;;;;;;;;;9.00;9.00;;;;;;;;4685683;30;45550;-92
2021/07/15 10:45:32;;;;;;;;;8.75;8.75;;;;;;;;4690034;30;45318;-96
2021/07/15 10:47:57;;;;;;;;;11.50;7.50;;;;;;;;4703995;30;45479;-96
2021/07/15 11:07:45;;;;;;;;;9.00;8.50;;;;;;;;4682589;30;45711;-94
2021/07/15 11:10:21;;;;;;;;;10.67;9.00;;;;;;;;5431194;24;46795;-96
2021/07/15 11:12:57;;;;;;;;;8.00;6.75;;;;;;;;4665850;30;45534;-95
2021/07/15 11:15:42;;;;;;;;;8.75;7.75;;;;;;;;4682474;30;45472;-95
2021/07/15 11:18:07;;;;;;;;;9.50;8.00;;;;;;;;4679417;30;45564;-95
2021/07/15 11:20:33;;;;;;;;;10.00;7.25;;;;;;;;4684352;30;45975;-94
2021/07/15 11:23:08;;;;;;;;;11.75;8.75;;;;;;;;4685472;30;45421;-96
2021/07/15 11:25:35;;;;;;;;;9.25;9.25;;;;;;;;4673852;30;45501;-95
2021/07/15 11:28:02;;;;;;;;;9.00;9.00;;;;;;;;4670320;30;46411;-96
2021/07/15 11:30:39;;;;;;;;;10.25;5.75;;;;;;;;4682611;30;46435;-93
2021/07/15 11:33:10;;;;;;;;;8.25;8.00;;;;;;;;4685284;30;46572;-96
2021/07/15 11:35:36;;;;;;;;;8.50;7.50;;;;;;;;4684594;30;45452;-94
2021/07/15 11:38:08;;;;;;;;;7.25;7.25;;;;;;;;4668128;30;45633;-94
2021/07/15 11:40:36;;;;;;;;;8.75;8.00;;;;;;;;4682108;30;48283;-92
2021/07/15 11:52:13;;;;;;;;;6.25;6.25;;;;;;;;4792015;24;45522;-95
2021/07/15 11:54:46;;;;;;;;;6.00;6.00;;;;;;;;4697938;30;45744;-96
2021/07/15 11:57:11;;;;;;;;;7.25;7.25;;;;;;;;4696586;30;45383;-95
2021/07/15 11:59:37;;;;;;;;;8.00;7.00;;;;;;;;4701010;30;45491;-96
2021/07/15 12:04:56;;;;;;;;;5.75;5.75;;;;;;;;5178911;24;46124;-85
2021/07/15 12:15:27;;;;;;;;;8.50;6.50;;;;;;;;4810035;24;45510;-85
2021/07/15 12:17:54;;;;;;;;;7.75;6.00;;;;;;;;4689184;30;45495;-84
2021/07/15 12:20:20;;;;;;;;;8.50;6.75;;;;;;;;4692164;30;45609;-84
2021/07/15 12:26:04;;;;;;;;;6.00;5.00;;;;;;;;5021153;24;46027;-95
2021/07/15 12:28:30;;;;;;;;;7.25;7.25;;;;;;;;4701152;30;45541;-94
2021/07/15 12:30:57;;;;;;;;;7.00;7.00;;;;;;;;4699831;30;45517;-94
2021/07/15 12:33:33;;;;;;;;;6.25;3.75;;;;;;;;4691555;30;45606;-94
2021/07/15 12:35:58;;;;;;;;;5.25;5.25;;;;;;;;4690454;30;45240;-96
2021/07/15 12:41:04;;;;;;;;;8.00;6.50;;;;;;;;5108175;24;47250;-96
2021/07/15 12:51:12;;;;;;;;;6.00;6.00;;;;;;;;4619350;24;45400;-95
2021/07/15 13:37:42;;;;;;;;;6.00;6.00;;;;;;;;4682909;30;44806;-95
2021/07/15 13:40:18;;;;;;;;;8.00;6.75;;;;;;;;4880862;24;44969;-96
2021/07/15 13:42:44;;;;;;;;;5.25;5.25;;;;;;;;4696370;30;44923;-96
2021/07/15 13:45:11;;;;;;;;;6.75;5.50;;;;;;;;4696673;30;46420;-96
2021/07/15 13:59:27;;;;;;;;;5.50;5.50;;;;;;;;5010568;24;44866;-95
2021/07/15 14:04:27;;;;;;;;;6.50;6.50;;;;;;;;5357759;24;46292;-95
2021/07/15 14:06:54;;;;;;;;;5.25;5.00;;;;;;;;4698495;30;47150;-94
2021/07/15 14:09:20;;;;;;;;;9.00;6.75;;;;;;;;4715594;30;45470;-94
2021/07/15 14:11:45;;;;;;;;;8.00;8.00;;;;;;;;4727880;30;44780;-96
2021/07/15 14:14:11;;;;;;;;;6.25;5.25;;;;;;;;4713343;30;44976;-96
2021/07/15 14:16:36;;;;;;;;;7.75;7.75;;;;;;;;4704372;30;47402;-95
2021/07/15 14:19:07;;;;;;;;;5.00;5.00;;;;;;;;4700142;30;45412;-96
2021/07/15 14:31:39;;;;;;;;;7.00;6.00;;;;;;;;4607236;24;45632;-96
2021/07/15 14:34:23;;;;;;;;;8.00;7.00;;;;;;;;4710353;30;45418;-96
2021/07/15 14:36:49;;;;;;;;;7.00;7.00;;;;;;;;4701193;30;45752;-95
2021/07/15 14:39:15;;;;;;;;;8.25;7.25;;;;;;;;4715539;30;46346;-96
2021/07/15 14:41:41;;;;;;;;;6.00;6.00;;;;;;;;4715358;30;44963;-96
2021/07/15 14:44:07;;;;;;;;;7.50;7.25;;;;;;;;4712830;30;45475;-96
2021/07/15 14:46:34;;;;;;;;;10.25;6.50;;;;;;;;4700912;30;45361;-95
2021/07/15 14:49:00;;;;;;;;;6.50;5.00;;;;;;;;4714038;30;45242;-93
2021/07/15 14:51:25;;;;;;;;;6.00;5.00;;;;;;;;4694543;30;45636;-96
2021/07/15 14:53:50;;;;;;;;;5.50;5.50;;;;;;;;4708979;30;45451;-95
2021/07/15 14:56:15;;;;;;;;;5.00;5.00;;;;;;;;4701757;30;44974;-94
2021/07/15 14:58:41;;;;;;;;;4.00;4.00;;;;;;;;4712089;30;45491;-96
2021/07/15 15:01:06;;;;;;;;;5.00;5.00;;;;;;;;4698691;30;46616;-95
2021/07/15 15:03:31;;;;;;;;;5.25;4.00;;;;;;;;4699110;30;45269;-92
2021/07/15 15:06:02;;;;;;;;;5.50;4.75;;;;;;;;4714496;30;45267;-94
2021/07/15 15:08:27;;;;;;;;;6.00;6.00;;;;;;;;4697618;30;48126;-95
2021/07/15 15:10:57;;;;;;;;;6.75;4.00;;;;;;;;4701017;30;45572;-95
2021/07/15 15:13:23;;;;;;;;;4.75;4.00;;;;;;;;4719443;30;45557;-94
2021/07/15 15:15:51;;;;;;;;;3.00;3.00;;;;;;;;4723972;30;45328;-96
2021/07/15 15:18:21;;;;;;;;;4.00;4.00;;;;;;;;4726083;30;45352;-96
2021/07/15 15:20:46;;;;;;;;;4.00;4.00;;;;;;;;4704325;30;45548;-95
2021/07/15 15:23:11;;;;;;;;;5.00;4.00;;;;;;;;4720749;30;45427;-96
2021/07/15 15:25:38;;;;;;;;;4.00;4.00;;;;;;;;4710382;30;46063;-95
2021/07/15 15:28:06;;;;;;;;;3.00;3.00;;;;;;;;4710039;30;47274;-95
2021/07/15 15:30:32;;;;;;;;;4.75;4.00;;;;;;;;4719979;30;44861;-96
2021/07/15 15:32:58;;;;;;;;;4.00;4.00;;;;;;;;4722468;30;44782;-95
2021/07/15 15:35:24;;;;;;;;;7.00;4.00;;;;;;;;4715460;30;45329;-94
2021/07/15 15:37:52;;;;;;;;;6.75;5.50;;;;;;;;4703703;30;48393;-96
2021/07/15 15:40:18;;;;;;;;;4.00;4.00;;;;;;;;4715807;30;45475;-95
2021/07/15 15:42:49;;;;;;;;;4.00;4.00;;;;;;;;4696083;30;45689;-96
2021/07/15 15:45:14;;;;;;;;;5.50;3.00;;;;;;;;4713318;30;45366;-95
2021/07/15 15:47:40;;;;;;;;;5.00;5.00;;;;;;;;4716415;30;46239;-93
2021/07/15 15:50:06;;;;;;;;;5.00;4.00;;;;;;;;4715840;30;45281;-95
2021/07/15 15:52:33;;;;;;;;;4.00;4.00;;;;;;;;4722740;30;45479;-96
2021/07/15 15:54:58;;;;;;;;;4.75;3.25;;;;;;;;4712157;30;45480;-94
2021/07/15 15:57:23;;;;;;;;;5.75;5.00;;;;;;;;4714061;30;45553;-94
2021/07/15 15:59:51;;;;;;;;;4.00;4.00;;;;;;;;4709870;30;46089;-96
2021/07/15 16:02:16;;;;;;;;;4.00;4.00;;;;;;;;4711479;30;45501;-95
2021/07/15 16:04:41;;;;;;;;;6.00;3.67;;;;;;;;4702252;30;45503;-96
2021/07/15 16:07:07;;;;;;;;;5.00;4.00;;;;;;;;4701782;30;46468;-96
2021/07/15 16:09:41;;;;;;;;;6.50;5.50;;;;;;;;4713953;30;45663;-96
2021/07/15 16:12:06;;;;;;;;;4.00;4.00;;;;;;;;4707827;30;45314;-96
2021/07/15 16:14:33;;;;;;;;;4.00;4.00;;;;;;;;4715436;30;45172;-95
2021/07/15 16:24:45;;;;;;;;;3.25;3.25;;;;;;;;4999345;24;47201;-95
2021/07/15 16:27:17;;;;;;;;;2.25;2.25;;;;;;;;4673613;30;47261;-96
2021/07/15 16:29:43;;;;;;;;;5.75;4.00;;;;;;;;4700140;30;45321;-96
2021/07/15 16:32:31;;;;;;;;;4.25;4.25;;;;;;;;4706936;24;45532;-96
2021/07/15 16:34:56;;;;;;;;;6.00;6.00;;;;;;;;4709522;30;44924;-96
2021/07/15 16:37:22;;;;;;;;;6.75;4.00;;;;;;;;4702582;30;47237;-96
2021/07/15 16:42:51;;;;;;;;;3.25;3.25;;;;;;;;4710184;30;44873;-96
2021/07/15 16:45:18;;;;;;;;;7.00;3.75;;;;;;;;4715442;30;45567;-96
2021/07/15 16:47:43;;;;;;;;;5.00;5.00;;;;;;;;4712217;30;46211;-96
2021/07/15 16:50:09;;;;;;;;;3.00;3.00;;;;;;;;4689715;30;45712;-96
2021/07/15 16:52:37;;;;;;;;;4.00;2.00;;;;;;;;4695485;30;45310;-96
2021/07/15 16:55:04;;;;;;;;;3.00;3.00;;;;;;;;4692617;30;45855;-94
2021/07/15 16:57:29;;;;;;;;;6.25;4.75;;;;;;;;4707406;30;46092;-96
2021/07/15 16:59:56;;;;;;;;;4.50;4.50;;;;;;;;4690479;30;45772;-95
2021/07/15 17:02:21;;;;;;;;;3.50;3.50;;;;;;;;4709968;30;45420;-95
2021/07/15 17:04:56;;;;;;;;;3.00;3.00;;;;;;;;4690501;30;45339;-95
2021/07/15 17:07:22;;;;;;;;;4.00;4.00;;;;;;;;4691176;30;48359;-96
2021/07/15 17:09:47;;;;;;;;;5.33;5.00;;;;;;;;4691455;30;45955;-95
2021/07/15 17:12:12;;;;;;;;;2.25;2.25;;;;;;;;4707518;30;45384;-96
2021/07/15 17:14:38;;;;;;;;;4.25;3.75;;;;;;;;4691636;30;45434;-94
2021/07/15 17:17:03;;;;;;;;;3.25;3.25;;;;;;;;4706534;30;45991;-96
2021/07/15 17:19:29;;;;;;;;;3.00;3.00;;;;;;;;4708838;30;44768;-96
2021/07/15 17:21:54;;;;;;;;;2.50;2.50;;;;;;;;4702586;30;45384;-95
2021/07/15 17:24:19;;;;;;;;;3.75;3.75;;;;;;;;4686231;30;45556;-94
2021/07/15 17:26:45;;;;;;;;;4.50;3.50;;;;;;;;4691193;30;47044;-95
2021/07/15 17:29:13;;;;;;;;;3.50;3.50;;;;;;;;4702155;30;45445;-96
2021/07/15 17:31:38;;;;;;;;;3.00;3.00;;;;;;;;4684613;30;45606;-96
2021/07/15 17:34:04;;;;;;;;;5.25;3.50;;;;;;;;4686203;30;45535;-95
2021/07/15 17:36:30;;;;;;;;;4.25;4.00;;;;;;;;4705298;30;46282;-95
2021/07/15 17:38:55;;;;;;;;;5.00;4.00;;;;;;;;4704650;30;45446;-94
2021/07/15 17:41:20;;;;;;;;;3.25;3.00;;;;;;;;4685405;30;45583;-94
2021/07/15 17:43:48;;;;;;;;;5.00;3.00;;;;;;;;4689632;30;45675;-96
2021/07/15 17:46:15;;;;;;;;;4.25;4.25;;;;;;;;4700880;30;47293;-96
2021/07/15 17:48:40;;;;;;;;;5.75;5.00;;;;;;;;4702255;30;45570;-95
2021/07/15 17:51:12;;;;;;;;;4.00;4.00;;;;;;;;4706726;30;45545;-96
2021/07/15 17:53:37;;;;;;;;;3.00;3.00;;;;;;;;4675292;30;45575;-96
2021/07/15 17:56:03;;;;;;;;;3.25;3.25;;;;;;;;4680820;30;48264;-93
2021/07/15 17:58:28;;;;;;;;;5.00;5.00;;;;;;;;4701762;30;44956;-96
2021/07/15 18:00:53;;;;;;;;;3.00;3.00;;;;;;;;4700416;30;45684;-95
2021/07/15 18:03:19;;;;;;;;;4.00;4.00;;;;;;;;4700966;30;45459;-94
2021/07/15 18:05:44;;;;;;;;;2.50;2.50;;;;;;;;4685057;30;47289;-93
2021/07/15 18:08:10;;;;;;;;;3.00;3.00;;;;;;;;4685741;30;45479;-95
2021/07/15 18:10:35;;;;;;;;;3.00;3.00;;;;;;;;4703509;30;44780;-95
2021/07/15 18:13:02;;;;;;;;;2.75;2.00;;;;;;;;4699347;30;45383;-94
2021/07/15 18:15:28;;;;;;;;;2.50;2.50;;;;;;;;4699667;30;45463;-96
2021/07/15 18:17:54;;;;;;;;;6.00;4.75;;;;;;;;4688004;30;45099;-96
2021/07/15 18:20:20;;;;;;;;;6.25;5.00;;;;;;;;4686796;30;45426;-96
2021/07/15 18:22:46;;;;;;;;;3.75;3.75;;;;;;;;4701179;30;45493;-95
2021/07/15 18:25:13;;;;;;;;;5.00;3.00;;;;;;;;4721990;24;46163;-96
2021/07/15 18:27:44;;;;;;;;;3.75;3.75;;;;;;;;4798100;24;45536;-82
2021/07/15 18:30:11;;;;;;;;;3.25;3.25;;;;;;;;4684529;30;45606;-83
2021/07/15 18:32:36;;;;;;;;;3.75;3.75;;;;;;;;4699401;30;45984;-82
2021/07/15 18:35:01;;;;;;;;;4.25;4.25;;;;;;;;4689149;30;53878;-82
2021/07/15 18:37:27;;;;;;;;;4.75;3.75;;;;;;;;4660804;30;46456;-82
2021/07/15 18:39:52;;;;;;;;;4.00;4.00;;;;;;;;4674265;30;45534;-81
2021/07/15 18:42:17;;;;;;;;;3.75;3.00;;;;;;;;4693796;30;45571;-81
2021/07/15 18:48:14;;;;;;;;;4.25;3.25;;;;;;;;4546615;31;46573;-80
2021/07/15 18:50:40;;;;;;;;;5.00;4.00;;;;;;;;4536263;31;45614;-81
2021/07/15 18:53:05;;;;;;;;;5.00;3.50;;;;;;;;4546272;31;45577;-81
2021/07/15 18:55:31;;;;;;;;;5.75;3.75;;;;;;;;4551383;31;46131;-80
2021/07/15 18:57:57;;;;;;;;;3.00;3.00;;;;;;;;4549231;31;45639;-81
2021/07/15 19:00:26;;;;;;;;;2.75;2.75;;;;;;;;4533134;31;45751;-81
2021/07/15 19:02:52;;;;;;;;;2.25;1.75;;;;;;;;4554579;31;45490;-80
2021/07/15 19:05:18;;;;;;;;;3.25;3.25;;;;;;;;4548366;31;45497;-80
2021/07/15 19:07:43;;;;;;;;;3.25;3.00;;;;;;;;4546918;31;45611;-81
2021/07/15 19:10:13;;;;;;;;;2.75;2.75;;;;;;;;4551731;31;49045;-80
2021/07/15 19:12:43;;;;;;;;;3.25;3.25;;;;;;;;4552574;31;45517;-80
2021/07/15 19:16:12;;;;;;;;;3.00;3.00;;;;;;;;4540046;31;47318;-80
2021/07/15 19:18:29;;;;;;;;;5.00;4.00;;;;;;;;4501632;31;45580;-80
2021/07/15 19:20:54;;;;;;;;;4.00;4.00;;;;;;;;4506863;31;47725;-81
2021/07/15 19:23:20;;;;;;;;;5.75;3.25;;;;;;;;4504544;31;45577;-81
2021/07/15 19:25:46;;;;;;;;;5.00;3.00;;;;;;;;4600958;30;46095;-81
2021/07/15 19:28:11;;;;;;;;;3.00;3.00;;;;;;;;4616787;30;45595;-80
2021/07/15 19:30:36;;;;;;;;;2.50;2.00;;;;;;;;4618400;30;48516;-81
2021/07/15 19:33:05;;;;;;;;;3.75;3.75;;;;;;;;4614763;30;45185;-81
2021/07/15 19:35:30;;;;;;;;;5.75;3.00;;;;;;;;4593774;30;47076;-81
2021/07/15 19:37:56;;;;;;;;;3.50;2.00;;;;;;;;4613614;30;45524;-81
2021/07/15 19:40:24;;;;;;;;;4.50;3.00;;;;;;;;4601868;30;45605;-80
2021/07/15 19:42:50;;;;;;;;;3.25;3.25;;;;;;;;4611537;30;45779;-81
2021/07/15 19:45:17;;;;;;;;;6.00;4.00;;;;;;;;4608246;30;47128;-81
2021/07/15 19:47:43;;;;;;;;;4.00;4.00;;;;;;;;4593927;30;46111;-80
2021/07/15 19:50:09;;;;;;;;;5.00;3.00;;;;;;;;4591907;30;49669;-80
2021/07/15 19:52:34;;;;;;;;;2.50;2.50;;;;;;;;4664047;30;45496;-82
2021/07/15 19:54:59;;;;;;;;;3.00;3.00;;;;;;;;4675606;30;46889;-80
2021/07/15 19:57:27;;;;;;;;;3.00;3.00;;;;;;;;4677137;30;45741;-80
2021/07/15 20:03:12;;;;;;;;;2.00;2.00;;;;;;;;4576409;30;45943;-80
2021/07/15 20:05:40;;;;;;;;;5.25;3.00;;;;;;;;4613570;30;45775;-80
2021/07/15 20:08:06;;;;;;;;;5.50;5.25;;;;;;;;4588487;30;45577;-81
2021/07/15 20:10:31;;;;;;;;;2.75;2.75;;;;;;;;4596569;30;45612;-78
2021/07/15 20:12:57;;;;;;;;;3.25;3.25;;;;;;;;4595640;30;45726;-79
2021/07/15 20:15:24;;;;;;;;;4.50;3.50;;;;;;;;4585181;30;45964;-80
2021/07/15 20:17:51;;;;;;;;;5.25;4.00;;;;;;;;4586615;30;45732;-79
2021/07/15 20:20:17;;;;;;;;;3.00;3.00;;;;;;;;4599790;30;45530;-79
2021/07/15 20:22:43;;;;;;;;;2.25;2.25;;;;;;;;4602618;30;45555;-79
2021/07/15 20:25:09;;;;;;;;;4.75;4.75;;;;;;;;4603746;30;46359;-79
2021/07/15 20:27:35;;;;;;;;;5.50;4.25;;;;;;;;4599536;30;46135;-78
2021/07/15 20:30:01;;;;;;;;;5.00;3.75;;;;;;;;4618319;30;45643;-79
2021/07/15 20:42:52;;;;;;;;;4.00;4.00;;;;;;;;4496328;31;45567;-78
2021/07/15 20:45:18;;;;;;;;;3.00;3.00;;;;;;;;4471111;31;45937;-79
2021/07/15 20:47:43;;;;;;;;;4.25;3.75;;;;;;;;4490483;31;46747;-78
2021/07/15 20:50:09;;;;;;;;;5.00;3.00;;;;;;;;4481354;31;45606;-78
2021/07/15 20:56:00;;;;;;;;;4.00;4.00;;;;;;;;4413713;32;45671;-77
2021/07/15 20:58:26;;;;;;;;;3.75;3.00;;;;;;;;4407417;32;46446;-78
2021/07/15 21:00:51;;;;;;;;;6.50;4.00;;;;;;;;4407699;32;45682;-77
2021/07/15 21:12:50;;;;;;;;;7.25;5.75;;;;;;;;4413432;31;54263;-78
2021/07/15 21:15:17;;;;;;;;;4.50;4.00;;;;;;;;4434183;31;45426;-78
2021/07/15 21:18:00;;;;;;;;;5.00;5.00;;;;;;;;4435197;31;45572;-78
2021/07/15 21:20:25;;;;;;;;;4.75;4.75;;;;;;;;4524389;31;46394;-78
2021/07/15 21:26:05;;;;;;;;;5.50;5.25;;;;;;;;4528233;31;45666;-78
2021/07/15 21:28:53;;;;;;;;;7.00;6.00;;;;;;;;4522055;31;46159;-77
2021/07/15 21:31:19;;;;;;;;;7.25;7.00;;;;;;;;4523941;31;45604;-78
2021/07/15 21:33:44;;;;;;;;;8.33;6.33;;;;;;;;4556002;31;45704;-78
2021/07/15 21:36:09;;;;;;;;;9.00;7.25;;;;;;;;4556132;31;47284;-78
2021/07/15 21:45:03;;;;;;;;;6.50;6.00;;;;;;;;4677845;24;45439;-94
2021/07/15 21:47:28;;;;;;;;;9.50;5.50;;;;;;;;4730911;24;46316;-79
2021/07/15 21:50:20;;;;;;;;;7.75;5.25;;;;;;;;4675158;30;45669;-79